Stewartstown, New Hampshire
Current Conditions -  °F | °C
As of 7:07 AM on Friday 24 Oct 2014 (Local Time) from KBML Reporting Station
Light Rain Light Rain  
Wind Chill: 44°   Ceiling: 800
Heat Index: 44°   Visibility: 7mi
Dew Point: 43°   Wind: 0mph
Humidity: 96%   Direction: NA
Pressure: 29.75"   Gusts: NA
Location:  44.8906°N, 71.3771°W
Report Text: KBML 241107Z AUTO 00000KT 7SM -RA BKN008 OVC013 07/06 A2975 RMK AO2 CIG 006V011 P0001 T00670061
Loading
Personal Weather Stations






























Interactive Weather Map
Tropical Storm Tracking
New forecast layout! Learn more

10-Day Weather Forecast

Advertisements
Track Severe Weather on mobile